sensor_id;sensor_type;location;lat;lon;timestamp;pressure;altitude;pressure_sealevel;temperature;humidity
75290;BME280;63883;48.996;20.804;2023-03-14T00:02:21;95897.03;;;6.42;52.31
75290;BME280;63883;48.996;20.804;2023-03-14T00:04:47;95897.88;;;6.42;52.10
75290;BME280;63883;48.996;20.804;2023-03-14T00:07:13;95898.13;;;6.32;52.78
75290;BME280;63883;48.996;20.804;2023-03-14T00:09:39;95894.28;;;6.12;54.52
75290;BME280;63883;48.996;20.804;2023-03-14T00:12:05;95888.75;;;5.95;55.20
75290;BME280;63883;48.996;20.804;2023-03-14T00:14:33;95893.41;;;5.72;56.46
75290;BME280;63883;48.996;20.804;2023-03-14T00:16:58;95884.44;;;5.56;56.82
75290;BME280;63883;48.996;20.804;2023-03-14T00:19:24;95870.25;;;5.48;56.43
75290;BME280;63883;48.996;20.804;2023-03-14T00:21:50;95870.38;;;5.41;56.41
75290;BME280;63883;48.996;20.804;2023-03-14T00:24:16;95864.69;;;5.31;56.93
75290;BME280;63883;48.996;20.804;2023-03-14T00:26:41;95874.00;;;5.29;57.11
75290;BME280;63883;48.996;20.804;2023-03-14T00:29:07;95867.25;;;5.30;56.76
75290;BME280;63883;48.996;20.804;2023-03-14T00:31:33;95865.66;;;5.26;57.68
75290;BME280;63883;48.996;20.804;2023-03-14T00:33:59;95862.19;;;5.30;56.96
75290;BME280;63883;48.996;20.804;2023-03-14T00:36:24;95857.28;;;5.22;57.61
75290;BME280;63883;48.996;20.804;2023-03-14T00:38:51;95858.47;;;5.03;57.99
75290;BME280;63883;48.996;20.804;2023-03-14T00:41:22;95845.31;;;4.83;59.04
75290;BME280;63883;48.996;20.804;2023-03-14T00:43:49;95853.22;;;4.64;59.69
75290;BME280;63883;48.996;20.804;2023-03-14T00:46:15;95843.38;;;4.48;60.54
75290;BME280;63883;48.996;20.804;2023-03-14T00:48:41;95842.84;;;4.26;62.08
75290;BME280;63883;48.996;20.804;2023-03-14T00:51:08;95841.25;;;4.22;61.71
75290;BME280;63883;48.996;20.804;2023-03-14T00:53:38;95825.16;;;4.29;61.38
75290;BME280;63883;48.996;20.804;2023-03-14T00:56:05;95812.56;;;4.27;60.86
75290;BME280;63883;48.996;20.804;2023-03-14T00:58:32;95809.97;;;4.32;60.62
75290;BME280;63883;48.996;20.804;2023-03-14T01:00:57;95800.75;;;4.31;60.49
75290;BME280;63883;48.996;20.804;2023-03-14T01:03:23;95810.25;;;4.12;62.18
75290;BME280;63883;48.996;20.804;2023-03-14T01:05:49;95802.88;;;4.02;62.22
75290;BME280;63883;48.996;20.804;2023-03-14T01:08:15;95797.91;;;3.96;62.14
75290;BME280;63883;48.996;20.804;2023-03-14T01:10:41;95790.41;;;3.89;62.58
75290;BME280;63883;48.996;20.804;2023-03-14T01:13:08;95787.09;;;3.86;62.10
75290;BME280;63883;48.996;20.804;2023-03-14T01:15:35;95791.28;;;3.88;62.38
75290;BME280;63883;48.996;20.804;2023-03-14T01:18:01;95779.66;;;3.78;62.60
75290;BME280;63883;48.996;20.804;2023-03-14T01:20:26;95780.72;;;3.61;63.26
75290;BME280;63883;48.996;20.804;2023-03-14T01:22:52;95772.56;;;3.43;64.03
75290;BME280;63883;48.996;20.804;2023-03-14T01:25:18;95774.34;;;3.35;64.71
75290;BME280;63883;48.996;20.804;2023-03-14T01:27:44;95767.78;;;3.22;65.11
75290;BME280;63883;48.996;20.804;2023-03-14T01:30:11;95761.81;;;3.31;64.90
75290;BME280;63883;48.996;20.804;2023-03-14T01:32:37;95773.47;;;3.38;64.61
75290;BME280;63883;48.996;20.804;2023-03-14T01:35:04;95769.41;;;3.26;65.24
75290;BME280;63883;48.996;20.804;2023-03-14T01:37:30;95753.59;;;3.13;65.91
75290;BME280;63883;48.996;20.804;2023-03-14T01:39:56;95746.13;;;3.07;66.05
75290;BME280;63883;48.996;20.804;2023-03-14T01:42:21;95742.03;;;2.96;66.50
75290;BME280;63883;48.996;20.804;2023-03-14T01:44:55;95740.44;;;2.90;66.95
75290;BME280;63883;48.996;20.804;2023-03-14T01:47:22;95734.63;;;2.85;67.00
75290;BME280;63883;48.996;20.804;2023-03-14T01:50:12;95732.16;;;2.81;67.25
75290;BME280;63883;48.996;20.804;2023-03-14T01:52:47;95727.16;;;2.76;67.40
75290;BME280;63883;48.996;20.804;2023-03-14T01:55:16;95732.19;;;2.79;67.09
75290;BME280;63883;48.996;20.804;2023-03-14T01:57:46;95725.38;;;2.86;67.14
75290;BME280;63883;48.996;20.804;2023-03-14T02:00:16;95723.72;;;2.85;67.32
75290;BME280;63883;48.996;20.804;2023-03-14T02:02:48;95721.97;;;2.90;66.33
75290;BME280;63883;48.996;20.804;2023-03-14T02:05:19;95706.88;;;2.88;66.88
75290;BME280;63883;48.996;20.804;2023-03-14T02:07:52;95701.97;;;2.78;67.22
75290;BME280;63883;48.996;20.804;2023-03-14T02:10:22;95702.03;;;2.73;67.79
75290;BME280;63883;48.996;20.804;2023-03-14T02:12:49;95689.63;;;2.59;68.40
75290;BME280;63883;48.996;20.804;2023-03-14T02:15:16;95682.31;;;2.35;69.18
75290;BME280;63883;48.996;20.804;2023-03-14T02:17:42;95667.41;;;2.15;70.55
75290;BME280;63883;48.996;20.804;2023-03-14T02:22:49;95661.94;;;1.72;72.33
75290;BME280;63883;48.996;20.804;2023-03-14T02:25:27;95652.78;;;1.62;72.57
75290;BME280;63883;48.996;20.804;2023-03-14T02:27:57;95648.66;;;1.52;73.43
75290;BME280;63883;48.996;20.804;2023-03-14T02:30:25;95660.47;;;1.42;73.86
75290;BME280;63883;48.996;20.804;2023-03-14T02:32:55;95651.34;;;1.32;74.64
75290;BME280;63883;48.996;20.804;2023-03-14T02:35:26;95655.56;;;1.24;75.28
75290;BME280;63883;48.996;20.804;2023-03-14T02:37:59;95645.59;;;1.15;76.16
75290;BME280;63883;48.996;20.804;2023-03-14T02:40:26;95643.13;;;1.06;76.69
75290;BME280;63883;48.996;20.804;2023-03-14T02:42:52;95644.00;;;0.96;77.04
75290;BME280;63883;48.996;20.804;2023-03-14T02:47:46;95650.72;;;1.00;77.38
75290;BME280;63883;48.996;20.804;2023-03-14T02:50:17;95645.69;;;0.97;77.36
75290;BME280;63883;48.996;20.804;2023-03-14T02:52:44;95635.66;;;0.94;77.49
75290;BME280;63883;48.996;20.804;2023-03-14T02:55:10;95633.13;;;0.97;78.09
75290;BME280;63883;48.996;20.804;2023-03-14T02:57:36;95628.13;;;0.94;77.82
75290;BME280;63883;48.996;20.804;2023-03-14T03:00:02;95620.63;;;0.92;78.31
75290;BME280;63883;48.996;20.804;2023-03-14T03:02:32;95637.31;;;0.95;78.47
75290;BME280;63883;48.996;20.804;2023-03-14T03:04:57;95639.03;;;0.93;78.09
75290;BME280;63883;48.996;20.804;2023-03-14T03:07:24;95638.19;;;0.88;77.94
75290;BME280;63883;48.996;20.804;2023-03-14T03:09:49;95631.56;;;0.79;78.59
75290;BME280;63883;48.996;20.804;2023-03-14T03:12:15;95634.88;;;0.79;78.50
75290;BME280;63883;48.996;20.804;2023-03-14T03:14:41;95628.19;;;0.82;79.19
75290;BME280;63883;48.996;20.804;2023-03-14T03:17:07;95621.53;;;0.79;79.27
75290;BME280;63883;48.996;20.804;2023-03-14T03:19:33;95614.81;;;0.79;79.21
75290;BME280;63883;48.996;20.804;2023-03-14T03:21:59;95613.06;;;0.94;78.45
75290;BME280;63883;48.996;20.804;2023-03-14T03:24:26;95614.69;;;1.05;77.88
75290;BME280;63883;48.996;20.804;2023-03-14T03:26:52;95622.91;;;1.26;77.33
75290;BME280;63883;48.996;20.804;2023-03-14T03:29:18;95619.41;;;1.45;75.99
75290;BME280;63883;48.996;20.804;2023-03-14T03:31:44;95610.19;;;1.48;75.81
75290;BME280;63883;48.996;20.804;2023-03-14T03:34:13;95599.25;;;1.52;75.93
75290;BME280;63883;48.996;20.804;2023-03-14T03:36:39;95596.69;;;1.58;75.42
75290;BME280;63883;48.996;20.804;2023-03-14T03:39:05;95592.53;;;1.58;75.52
75290;BME280;63883;48.996;20.804;2023-03-14T03:41:31;95579.16;;;1.52;75.59
75290;BME280;63883;48.996;20.804;2023-03-14T03:43:57;95579.25;;;1.43;75.44
75290;BME280;63883;48.996;20.804;2023-03-14T03:46:23;95573.44;;;1.37;76.43
75290;BME280;63883;48.996;20.804;2023-03-14T03:48:54;95567.66;;;1.27;76.49
75290;BME280;63883;48.996;20.804;2023-03-14T03:51:20;95565.19;;;1.21;76.89
75290;BME280;63883;48.996;20.804;2023-03-14T03:53:46;95562.69;;;1.20;76.84
75290;BME280;63883;48.996;20.804;2023-03-14T03:56:12;95554.28;;;1.25;76.86
75290;BME280;63883;48.996;20.804;2023-03-14T03:58:37;95549.25;;;1.24;76.50
75290;BME280;63883;48.996;20.804;2023-03-14T04:01:08;95535.88;;;1.25;76.60
75290;BME280;63883;48.996;20.804;2023-03-14T04:03:34;95539.16;;;1.31;76.26
75290;BME280;63883;48.996;20.804;2023-03-14T04:06:04;95555.06;;;1.30;76.44
75290;BME280;63883;48.996;20.804;2023-03-14T04:08:30;95552.53;;;1.33;76.91
75290;BME280;63883;48.996;20.804;2023-03-14T04:10:57;95550.84;;;1.35;76.34
75290;BME280;63883;48.996;20.804;2023-03-14T04:13:23;95553.09;;;1.64;72.81
75290;BME280;63883;48.996;20.804;2023-03-14T04:15:50;95537.75;;;1.90;72.70
75290;BME280;63883;48.996;20.804;2023-03-14T04:18:16;95525.88;;;2.03;72.83
75290;BME280;63883;48.996;20.804;2023-03-14T04:20:41;95529.97;;;2.11;72.80
75290;BME280;63883;48.996;20.804;2023-03-14T04:23:07;95525.09;;;1.96;73.86
75290;BME280;63883;48.996;20.804;2023-03-14T04:25:33;95521.91;;;1.82;75.02
75290;BME280;63883;48.996;20.804;2023-03-14T04:27:58;95507.66;;;1.82;74.75
75290;BME280;63883;48.996;20.804;2023-03-14T04:30:24;95503.47;;;1.83;74.86
75290;BME280;63883;48.996;20.804;2023-03-14T04:32:50;95501.66;;;1.95;74.50
75290;BME280;63883;48.996;20.804;2023-03-14T04:35:16;95496.59;;;2.00;74.68
75290;BME280;63883;48.996;20.804;2023-03-14T04:37:41;95504.72;;;2.19;73.86
75290;BME280;63883;48.996;20.804;2023-03-14T04:40:10;95486.19;;;2.27;73.31
75290;BME280;63883;48.996;20.804;2023-03-14T04:42:35;95491.09;;;2.37;73.05
75290;BME280;63883;48.996;20.804;2023-03-14T04:45:01;95469.25;;;2.39;72.65
75290;BME280;63883;48.996;20.804;2023-03-14T04:47:28;95483.41;;;2.46;73.05
75290;BME280;63883;48.996;20.804;2023-03-14T04:49:54;95470.59;;;2.62;70.90
75290;BME280;63883;48.996;20.804;2023-03-14T04:52:19;95467.84;;;2.79;70.96
75290;BME280;63883;48.996;20.804;2023-03-14T04:54:45;95466.75;;;2.95;70.74
75290;BME280;63883;48.996;20.804;2023-03-14T04:57:11;95463.34;;;2.98;70.07
75290;BME280;63883;48.996;20.804;2023-03-14T04:59:36;95459.84;;;3.06;69.39
75290;BME280;63883;48.996;20.804;2023-03-14T05:02:02;95458.78;;;3.18;69.41
75290;BME280;63883;48.996;20.804;2023-03-14T05:04:28;95448.59;;;3.26;69.24
75290;BME280;63883;48.996;20.804;2023-03-14T05:06:54;95448.41;;;3.38;68.83
75290;BME280;63883;48.996;20.804;2023-03-14T05:09:20;95445.81;;;3.41;68.74
75290;BME280;63883;48.996;20.804;2023-03-14T05:11:46;95445.88;;;3.38;69.54
75290;BME280;63883;48.996;20.804;2023-03-14T05:14:12;95440.84;;;3.38;69.79
75290;BME280;63883;48.996;20.804;2023-03-14T05:16:37;95445.56;;;3.53;69.75
75290;BME280;63883;48.996;20.804;2023-03-14T05:19:03;95444.84;;;3.46;69.91
75290;BME280;63883;48.996;20.804;2023-03-14T05:21:28;95455.00;;;3.43;69.84
75290;BME280;63883;48.996;20.804;2023-03-14T05:23:54;95450.56;;;3.56;69.45
75290;BME280;63883;48.996;20.804;2023-03-14T05:26:20;95457.06;;;3.68;68.61
75290;BME280;63883;48.996;20.804;2023-03-14T05:28:46;95443.56;;;3.70;68.32
75290;BME280;63883;48.996;20.804;2023-03-14T05:31:11;95452.81;;;3.71;68.61
75290;BME280;63883;48.996;20.804;2023-03-14T05:33:37;95444.22;;;3.81;68.53
75290;BME280;63883;48.996;20.804;2023-03-14T05:36:03;95437.50;;;3.80;67.97
75290;BME280;63883;48.996;20.804;2023-03-14T05:38:29;95434.19;;;3.77;68.31
75290;BME280;63883;48.996;20.804;2023-03-14T05:40:54;95446.00;;;3.75;68.79
75290;BME280;63883;48.996;20.804;2023-03-14T05:43:20;95438.38;;;3.78;69.18
75290;BME280;63883;48.996;20.804;2023-03-14T05:45:46;95447.63;;;3.79;68.95
75290;BME280;63883;48.996;20.804;2023-03-14T05:48:12;95460.16;;;3.82;68.52
75290;BME280;63883;48.996;20.804;2023-03-14T05:50:37;95441.78;;;3.75;69.62
75290;BME280;63883;48.996;20.804;2023-03-14T05:53:03;95444.25;;;3.80;70.01
75290;BME280;63883;48.996;20.804;2023-03-14T05:55:29;95444.13;;;3.86;69.82
75290;BME280;63883;48.996;20.804;2023-03-14T05:57:55;95440.63;;;3.91;69.89
75290;BME280;63883;48.996;20.804;2023-03-14T06:00:21;95440.34;;;4.05;69.88
75290;BME280;63883;48.996;20.804;2023-03-14T06:02:47;95436.84;;;4.12;69.01
75290;BME280;63883;48.996;20.804;2023-03-14T06:05:13;95422.34;;;4.22;69.08
75290;BME280;63883;48.996;20.804;2023-03-14T06:07:38;95420.50;;;4.30;68.96
75290;BME280;63883;48.996;20.804;2023-03-14T06:10:05;95399.28;;;4.39;69.39
75290;BME280;63883;48.996;20.804;2023-03-14T06:12:31;95397.38;;;4.47;69.14
75290;BME280;63883;48.996;20.804;2023-03-14T06:14:56;95398.97;;;4.52;67.85
75290;BME280;63883;48.996;20.804;2023-03-14T06:17:22;95403.06;;;4.56;67.69
75290;BME280;63883;48.996;20.804;2023-03-14T06:19:48;95397.03;;;4.62;67.50
75290;BME280;63883;48.996;20.804;2023-03-14T06:22:14;95396.00;;;4.70;67.77
75290;BME280;63883;48.996;20.804;2023-03-14T06:24:39;95385.84;;;4.74;67.66
75290;BME280;63883;48.996;20.804;2023-03-14T06:27:05;95393.16;;;4.83;66.57
75290;BME280;63883;48.996;20.804;2023-03-14T06:29:31;95376.06;;;4.94;65.73
75290;BME280;63883;48.996;20.804;2023-03-14T06:31:57;95371.72;;;4.99;65.18
75290;BME280;63883;48.996;20.804;2023-03-14T06:34:22;95380.81;;;5.06;64.36
75290;BME280;63883;48.996;20.804;2023-03-14T06:36:48;95371.31;;;5.14;64.69
75290;BME280;63883;48.996;20.804;2023-03-14T06:39:14;95383.75;;;5.23;63.38
75290;BME280;63883;48.996;20.804;2023-03-14T06:41:40;95394.44;;;5.33;65.10
75290;BME280;63883;48.996;20.804;2023-03-14T06:44:05;95380.97;;;5.32;64.40
75290;BME280;63883;48.996;20.804;2023-03-14T06:46:31;95390.16;;;5.35;63.68
75290;BME280;63883;48.996;20.804;2023-03-14T06:48:57;95388.50;;;5.34;62.66
75290;BME280;63883;48.996;20.804;2023-03-14T06:51:23;95387.59;;;5.36;63.63
75290;BME280;63883;48.996;20.804;2023-03-14T06:53:48;95395.00;;;5.42;62.92
75290;BME280;63883;48.996;20.804;2023-03-14T06:56:14;95378.13;;;5.44;63.42
75290;BME280;63883;48.996;20.804;2023-03-14T06:58:40;95380.63;;;5.44;64.79
75290;BME280;63883;48.996;20.804;2023-03-14T07:01:06;95385.56;;;5.49;65.99
75290;BME280;63883;48.996;20.804;2023-03-14T07:03:40;95382.28;;;5.47;66.03
75290;BME280;63883;48.996;20.804;2023-03-14T07:06:06;95388.06;;;5.50;65.75
75290;BME280;63883;48.996;20.804;2023-03-14T07:08:32;95382.88;;;5.55;66.16
75290;BME280;63883;48.996;20.804;2023-03-14T07:10:58;95389.34;;;5.65;65.50
75290;BME280;63883;48.996;20.804;2023-03-14T07:13:23;95371.44;;;5.73;66.38
75290;BME280;63883;48.996;20.804;2023-03-14T07:15:49;95369.50;;;5.81;66.60
75290;BME280;63883;48.996;20.804;2023-03-14T07:18:15;95369.88;;;5.98;65.85
75290;BME280;63883;48.996;20.804;2023-03-14T07:20:40;95372.78;;;6.42;61.57
75290;BME280;63883;48.996;20.804;2023-03-14T07:23:06;95369.19;;;6.49;62.92
75290;BME280;63883;48.996;20.804;2023-03-14T07:25:32;95371.44;;;6.58;61.43
75290;BME280;63883;48.996;20.804;2023-03-14T07:27:57;95363.66;;;6.90;58.16
75290;BME280;63883;48.996;20.804;2023-03-14T07:30:23;95365.22;;;7.19;57.00
75290;BME280;63883;48.996;20.804;2023-03-14T07:32:49;95357.09;;;7.58;55.42
75290;BME280;63883;48.996;20.804;2023-03-14T07:35:15;95357.53;;;7.70;55.89
75290;BME280;63883;48.996;20.804;2023-03-14T07:37:40;95349.41;;;7.84;57.17
75290;BME280;63883;48.996;20.804;2023-03-14T07:40:06;95353.75;;;7.80;56.66
75290;BME280;63883;48.996;20.804;2023-03-14T07:42:32;95346.47;;;7.71;57.26
75290;BME280;63883;48.996;20.804;2023-03-14T07:44:58;95360.66;;;7.77;57.64
75290;BME280;63883;48.996;20.804;2023-03-14T07:47:23;95353.69;;;7.82;56.20
75290;BME280;63883;48.996;20.804;2023-03-14T07:49:49;95358.69;;;7.85;57.79
75290;BME280;63883;48.996;20.804;2023-03-14T07:52:16;95368.31;;;7.75;57.91
75290;BME280;63883;48.996;20.804;2023-03-14T07:54:41;95365.00;;;7.73;57.62
75290;BME280;63883;48.996;20.804;2023-03-14T07:57:07;95371.66;;;7.77;56.68
75290;BME280;63883;48.996;20.804;2023-03-14T07:59:33;95373.41;;;7.75;59.99
75290;BME280;63883;48.996;20.804;2023-03-14T08:01:58;95380.22;;;7.73;58.21
75290;BME280;63883;48.996;20.804;2023-03-14T08:04:24;95368.31;;;7.75;59.41
75290;BME280;63883;48.996;20.804;2023-03-14T08:06:50;95381.09;;;7.72;58.72
75290;BME280;63883;48.996;20.804;2023-03-14T08:09:15;95378.47;;;7.75;58.64
75290;BME280;63883;48.996;20.804;2023-03-14T08:11:41;95382.72;;;7.75;58.12
75290;BME280;63883;48.996;20.804;2023-03-14T08:14:07;95367.66;;;7.94;56.97
75290;BME280;63883;48.996;20.804;2023-03-14T08:16:32;95364.75;;;8.26;54.88
75290;BME280;63883;48.996;20.804;2023-03-14T08:18:58;95368.91;;;8.50;55.57
75290;BME280;63883;48.996;20.804;2023-03-14T08:21:24;95363.59;;;8.78;55.36
75290;BME280;63883;48.996;20.804;2023-03-14T08:23:50;95350.94;;;8.97;54.07
75290;BME280;63883;48.996;20.804;2023-03-14T08:26:15;95343.00;;;9.25;52.97
75290;BME280;63883;48.996;20.804;2023-03-14T08:28:41;95349.66;;;9.48;50.80
75290;BME280;63883;48.996;20.804;2023-03-14T08:31:07;95344.88;;;9.60;50.48
75290;BME280;63883;48.996;20.804;2023-03-14T08:33:32;95324.31;;;9.65;50.93
75290;BME280;63883;48.996;20.804;2023-03-14T08:35:59;95310.19;;;9.95;49.64
75290;BME280;63883;48.996;20.804;2023-03-14T08:38:26;95300.66;;;10.00;49.90
75290;BME280;63883;48.996;20.804;2023-03-14T08:40:56;95293.38;;;10.10;50.13
75290;BME280;63883;48.996;20.804;2023-03-14T08:43:22;95284.59;;;10.17;50.42
75290;BME280;63883;48.996;20.804;2023-03-14T08:45:48;95312.63;;;10.36;48.78
75290;BME280;63883;48.996;20.804;2023-03-14T08:48:14;95318.19;;;10.44;48.53
75290;BME280;63883;48.996;20.804;2023-03-14T08:50:40;95334.50;;;10.40;48.37
75290;BME280;63883;48.996;20.804;2023-03-14T08:53:05;95318.81;;;10.30;49.08
75290;BME280;63883;48.996;20.804;2023-03-14T08:55:31;95322.94;;;10.14;48.89
75290;BME280;63883;48.996;20.804;2023-03-14T08:57:57;95324.78;;;10.10;48.68
75290;BME280;63883;48.996;20.804;2023-03-14T09:00:23;95308.34;;;10.17;48.57
75290;BME280;63883;48.996;20.804;2023-03-14T09:02:49;95320.22;;;10.18;48.67
75290;BME280;63883;48.996;20.804;2023-03-14T09:05:15;95317.19;;;10.29;48.50
75290;BME280;63883;48.996;20.804;2023-03-14T09:07:41;95315.91;;;10.38;48.97
75290;BME280;63883;48.996;20.804;2023-03-14T09:10:09;95314.66;;;10.46;49.12
75290;BME280;63883;48.996;20.804;2023-03-14T09:12:35;95317.66;;;10.54;48.63
75290;BME280;63883;48.996;20.804;2023-03-14T09:15:01;95314.22;;;10.55;49.00
75290;BME280;63883;48.996;20.804;2023-03-14T09:17:27;95327.91;;;10.53;48.11
75290;BME280;63883;48.996;20.804;2023-03-14T09:19:53;95319.81;;;10.45;48.12
75290;BME280;63883;48.996;20.804;2023-03-14T09:22:19;95310.53;;;10.44;48.25
75290;BME280;63883;48.996;20.804;2023-03-14T09:24:46;95315.84;;;10.39;48.09
75290;BME280;63883;48.996;20.804;2023-03-14T09:27:11;95292.81;;;10.41;48.92
75290;BME280;63883;48.996;20.804;2023-03-14T09:29:37;95293.66;;;10.41;48.86
75290;BME280;63883;48.996;20.804;2023-03-14T09:32:03;95291.69;;;10.46;49.29
75290;BME280;63883;48.996;20.804;2023-03-14T09:34:29;95287.44;;;10.47;49.57
75290;BME280;63883;48.996;20.804;2023-03-14T09:36:55;95280.38;;;10.52;49.22
75290;BME280;63883;48.996;20.804;2023-03-14T09:39:20;95282.94;;;10.69;49.01
75290;BME280;63883;48.996;20.804;2023-03-14T09:41:49;95282.00;;;10.72;48.29
75290;BME280;63883;48.996;20.804;2023-03-14T09:46:48;95271.69;;;10.90;47.68
75290;BME280;63883;48.996;20.804;2023-03-14T09:49:29;95264.63;;;10.95;47.39
75290;BME280;63883;48.996;20.804;2023-03-14T09:51:57;95267.16;;;11.30;46.99
75290;BME280;63883;48.996;20.804;2023-03-14T09:57:26;95258.56;;;12.27;44.42
75290;BME280;63883;48.996;20.804;2023-03-14T10:00:00;95272.25;;;12.41;44.20
75290;BME280;63883;48.996;20.804;2023-03-14T10:02:37;95274.66;;;12.29;44.68
75290;BME280;63883;48.996;20.804;2023-03-14T10:05:13;95291.72;;;12.12;45.18
75290;BME280;63883;48.996;20.804;2023-03-14T10:07:39;95284.31;;;11.77;45.63
75290;BME280;63883;48.996;20.804;2023-03-14T10:10:10;95276.50;;;11.62;45.80
75290;BME280;63883;48.996;20.804;2023-03-14T10:12:37;95282.53;;;11.61;47.43
75290;BME280;63883;48.996;20.804;2023-03-14T10:15:16;95279.53;;;11.53;46.19
75290;BME280;63883;48.996;20.804;2023-03-14T10:17:50;95260.00;;;11.37;46.32
75290;BME280;63883;48.996;20.804;2023-03-14T10:20:48;95261.56;;;11.39;46.62
75290;BME280;63883;48.996;20.804;2023-03-14T10:25:43;95244.78;;;11.51;47.30
75290;BME280;63883;48.996;20.804;2023-03-14T10:30:50;95253.25;;;12.16;45.71
75290;BME280;63883;48.996;20.804;2023-03-14T10:33:30;95237.22;;;12.28;45.77
75290;BME280;63883;48.996;20.804;2023-03-14T10:38:28;95255.03;;;11.66;46.66
75290;BME280;63883;48.996;20.804;2023-03-14T10:40:55;95258.06;;;11.57;46.96
75290;BME280;63883;48.996;20.804;2023-03-14T10:43:32;95248.06;;;11.53;47.90
75290;BME280;63883;48.996;20.804;2023-03-14T10:46:02;95248.97;;;11.36;47.53
75290;BME280;63883;48.996;20.804;2023-03-14T10:48:38;95245.50;;;11.37;48.22
75290;BME280;63883;48.996;20.804;2023-03-14T10:51:28;95242.34;;;11.32;48.03
75290;BME280;63883;48.996;20.804;2023-03-14T10:54:23;95248.72;;;11.08;47.93
75290;BME280;63883;48.996;20.804;2023-03-14T10:57:00;95252.88;;;10.93;48.37
75290;BME280;63883;48.996;20.804;2023-03-14T10:59:36;95262.56;;;10.86;49.64
75290;BME280;63883;48.996;20.804;2023-03-14T11:04:57;95246.94;;;10.75;49.41
75290;BME280;63883;48.996;20.804;2023-03-14T11:07:37;95248.31;;;10.65;49.20
75290;BME280;63883;48.996;20.804;2023-03-14T11:15:53;95261.84;;;10.31;50.35
75290;BME280;63883;48.996;20.804;2023-03-14T11:32:07;95269.88;;;9.86;51.14
75290;BME280;63883;48.996;20.804;2023-03-14T11:35:04;95264.09;;;9.83;51.58
75290;BME280;63883;48.996;20.804;2023-03-14T11:37:36;95256.75;;;9.76;50.97
75290;BME280;63883;48.996;20.804;2023-03-14T11:40:21;95258.75;;;9.70;51.31
75290;BME280;63883;48.996;20.804;2023-03-14T11:42:54;95252.13;;;9.66;50.95
75290;BME280;63883;48.996;20.804;2023-03-14T11:45:29;95247.94;;;9.65;50.75
75290;BME280;63883;48.996;20.804;2023-03-14T11:50:50;95243.88;;;9.61;50.58
75290;BME280;63883;48.996;20.804;2023-03-14T11:55:49;95229.50;;;9.60;50.50
75290;BME280;63883;48.996;20.804;2023-03-14T11:58:27;95220.19;;;9.59;50.20
75290;BME280;63883;48.996;20.804;2023-03-14T12:00:56;95219.13;;;9.64;50.07
75290;BME280;63883;48.996;20.804;2023-03-14T12:03:36;95199.28;;;9.71;51.75
75290;BME280;63883;48.996;20.804;2023-03-14T12:06:58;95198.84;;;9.80;50.69
75290;BME280;63883;48.996;20.804;2023-03-14T12:09:05;95189.97;;;9.89;50.77
75290;BME280;63883;48.996;20.804;2023-03-14T12:14:26;95188.84;;;9.94;50.09
75290;BME280;63883;48.996;20.804;2023-03-14T12:17:18;95188.22;;;10.08;49.88
75290;BME280;63883;48.996;20.804;2023-03-14T12:19:45;95185.03;;;10.22;49.24
75290;BME280;63883;48.996;20.804;2023-03-14T12:22:24;95185.91;;;10.38;49.66
75290;BME280;63883;48.996;20.804;2023-03-14T12:24:54;95180.38;;;10.47;49.09
75290;BME280;63883;48.996;20.804;2023-03-14T12:28:04;95169.66;;;10.57;48.79
75290;BME280;63883;48.996;20.804;2023-03-14T12:35:49;95174.81;;;10.56;48.66
75290;BME280;63883;48.996;20.804;2023-03-14T12:43:29;95172.94;;;10.60;48.78
75290;BME280;63883;48.996;20.804;2023-03-14T12:46:19;95172.53;;;10.67;48.44
75290;BME280;63883;48.996;20.804;2023-03-14T12:48:47;95171.34;;;10.74;48.14
75290;BME280;63883;48.996;20.804;2023-03-14T12:51:15;95173.31;;;10.69;48.49
75290;BME280;63883;48.996;20.804;2023-03-14T12:56:48;95173.63;;;10.46;48.31
75290;BME280;63883;48.996;20.804;2023-03-14T13:04:44;95146.66;;;10.75;47.72
75290;BME280;63883;48.996;20.804;2023-03-14T13:15:40;95132.50;;;11.18;46.39
75290;BME280;63883;48.996;20.804;2023-03-14T13:20:46;95118.34;;;11.28;46.81
75290;BME280;63883;48.996;20.804;2023-03-14T13:25:50;95104.91;;;11.71;45.02
75290;BME280;63883;48.996;20.804;2023-03-14T13:28:16;95104.09;;;12.17;44.14
75290;BME280;63883;48.996;20.804;2023-03-14T13:30:50;95106.53;;;12.18;44.03
75290;BME280;63883;48.996;20.804;2023-03-14T13:33:21;95110.03;;;12.17;44.15
75290;BME280;63883;48.996;20.804;2023-03-14T13:38:23;95091.31;;;12.17;43.97
75290;BME280;63883;48.996;20.804;2023-03-14T13:40:51;95084.78;;;12.11;44.49
75290;BME280;63883;48.996;20.804;2023-03-14T13:43:24;95082.41;;;12.08;44.92
75290;BME280;63883;48.996;20.804;2023-03-14T13:45:55;95085.66;;;11.96;44.77
75290;BME280;63883;48.996;20.804;2023-03-14T13:48:22;95076.88;;;11.86;45.49
75290;BME280;63883;48.996;20.804;2023-03-14T13:50:53;95087.25;;;11.83;45.67
75290;BME280;63883;48.996;20.804;2023-03-14T13:53:20;95074.69;;;11.64;46.61
75290;BME280;63883;48.996;20.804;2023-03-14T13:55:46;95078.41;;;11.58;46.69
75290;BME280;63883;48.996;20.804;2023-03-14T13:58:20;95082.09;;;11.53;47.33
75290;BME280;63883;48.996;20.804;2023-03-14T14:01:04;95081.94;;;11.40;47.18
75290;BME280;63883;48.996;20.804;2023-03-14T14:03:33;95074.28;;;11.40;47.82
75290;BME280;63883;48.996;20.804;2023-03-14T14:06:00;95072.56;;;11.41;47.84
75290;BME280;63883;48.996;20.804;2023-03-14T14:08:26;95071.31;;;11.48;47.21
75290;BME280;63883;48.996;20.804;2023-03-14T14:10:57;95068.69;;;11.49;46.96
75290;BME280;63883;48.996;20.804;2023-03-14T14:13:24;95068.75;;;11.48;47.71
75290;BME280;63883;48.996;20.804;2023-03-14T14:15:53;95075.38;;;11.52;47.51
75290;BME280;63883;48.996;20.804;2023-03-14T14:18:22;95066.13;;;11.49;48.24
75290;BME280;63883;48.996;20.804;2023-03-14T14:20:51;95070.69;;;11.44;48.50
75290;BME280;63883;48.996;20.804;2023-03-14T14:23:19;95068.13;;;11.44;48.21
75290;BME280;63883;48.996;20.804;2023-03-14T14:25:51;95065.66;;;11.43;48.59
75290;BME280;63883;48.996;20.804;2023-03-14T14:28:30;95064.34;;;11.35;49.54